Time;durP1;ratioP1;P1;durP2;ratioP2;P2;SDS_P1;SDS_P2;PMS_P1;PMS_P2;Temp;Humidity;BMP_temperature;BMP_pressure;BME280_temperature;BME280_humidity;BME280_pressure;Samples;Min_cycle;Max_cycle;Signal;HPM_P1;HPM_P2
2023/08/20 00:00:07;;;;;;;7.82;3.00;;;;;;;17.11;100.00;101892.31;4992744;28;20023;-68
2023/08/20 00:02:36;;;;;;;5.22;2.40;;;;;;;17.10;100.00;101883.59;4992468;28;20026;-69
2023/08/20 00:05:03;;;;;;;5.57;2.75;;;;;;;17.08;100.00;101892.22;4992201;28;20043;-68
2023/08/20 00:07:30;;;;;;;8.25;2.70;;;;;;;17.08;100.00;101902.69;4993095;28;20201;-69
2023/08/20 00:09:56;;;;;;;9.70;2.97;;;;;;;17.07;100.00;101893.94;4992241;28;20047;-69
2023/08/20 00:12:22;;;;;;;8.63;2.58;;;;;;;17.05;100.00;101899.16;4992423;28;20033;-68
2023/08/20 00:14:58;;;;;;;6.28;2.70;;;;;;;17.00;100.00;101890.31;4991896;28;20057;-68
2023/08/20 00:17:26;;;;;;;5.40;2.40;;;;;;;16.96;100.00;101893.75;4992027;28;20089;-64
2023/08/20 00:19:53;;;;;;;6.40;2.60;;;;;;;16.90;100.00;101889.25;4991961;28;20147;-67
2023/08/20 00:22:21;;;;;;;6.07;2.85;;;;;;;16.86;100.00;101889.13;4992197;28;20018;-68
2023/08/20 00:24:47;;;;;;;6.60;2.50;;;;;;;16.79;100.00;101886.38;4992352;28;20525;-68
2023/08/20 00:27:12;;;;;;;8.02;2.70;;;;;;;16.75;100.00;101884.53;4991476;28;20113;-68
2023/08/20 00:29:38;;;;;;;4.95;2.83;;;;;;;16.74;100.00;101892.34;4992192;28;20126;-69
2023/08/20 00:32:03;;;;;;;5.88;3.05;;;;;;;16.68;100.00;101888.75;4991534;28;20041;-69
2023/08/20 00:34:29;;;;;;;5.30;2.47;;;;;;;16.67;100.00;101886.09;4991967;28;20050;-69
2023/08/20 00:36:54;;;;;;;7.53;3.50;;;;;;;16.63;100.00;101886.88;4990921;28;20037;-68
2023/08/20 00:39:19;;;;;;;5.72;3.10;;;;;;;16.61;100.00;101891.19;4991912;28;20030;-68
2023/08/20 00:41:45;;;;;;;5.18;2.72;;;;;;;16.54;100.00;101901.50;4986953;28;20030;-68
2023/08/20 00:44:10;;;;;;;10.27;2.97;;;;;;;16.52;100.00;101903.19;4984205;28;20073;-68
2023/08/20 00:46:36;;;;;;;6.75;3.20;;;;;;;16.51;100.00;101911.91;4991924;28;20158;-68
2023/08/20 00:49:01;;;;;;;7.57;3.10;;;;;;;16.49;100.00;101918.84;4991385;28;20765;-64
2023/08/20 00:51:28;;;;;;;8.00;3.00;;;;;;;16.47;100.00;101920.53;4990908;28;20076;-69
2023/08/20 00:53:54;;;;;;;6.57;2.50;;;;;;;16.49;100.00;101923.16;4991867;28;20026;-68
2023/08/20 00:56:20;;;;;;;5.22;2.92;;;;;;;16.51;100.00;101924.09;4991751;28;20035;-69
2023/08/20 00:58:45;;;;;;;6.78;3.22;;;;;;;16.50;100.00;101925.81;4991019;28;20113;-68
2023/08/20 01:01:11;;;;;;;5.15;2.85;;;;;;;16.50;100.00;101932.78;4991049;28;20022;-68
2023/08/20 01:03:36;;;;;;;6.45;3.20;;;;;;;16.51;100.00;101937.19;4991034;28;20363;-67
2023/08/20 01:06:17;;;;;;;5.93;3.05;;;;;;;16.49;100.00;101945.00;4991083;28;20128;-68
2023/08/20 01:08:50;;;;;;;5.47;3.20;;;;;;;16.51;100.00;101945.91;4991326;28;20498;-67
2023/08/20 01:11:33;;;;;;;9.02;3.17;;;;;;;16.55;100.00;101955.59;4979307;28;20065;-69
2023/08/20 01:13:58;;;;;;;6.20;3.15;;;;;;;16.61;100.00;101954.88;4990830;28;20048;-69
2023/08/20 01:16:33;;;;;;;5.93;2.80;;;;;;;16.67;100.00;101962.00;4990848;28;20039;-68
2023/08/20 01:19:00;;;;;;;6.43;3.08;;;;;;;16.72;100.00;101962.09;4989945;28;20069;-69
2023/08/20 01:21:41;;;;;;;8.82;3.83;;;;;;;16.73;100.00;101967.34;4989250;28;20038;-68
2023/08/20 01:24:29;;;;;;;6.30;3.25;;;;;;;16.78;100.00;101967.50;4960460;28;20084;-69
2023/08/20 01:27:34;;;;;;;6.68;2.90;;;;;;;16.84;100.00;101958.91;4972426;28;20030;-68
2023/08/20 01:30:03;;;;;;;6.78;3.05;;;;;;;16.87;100.00;101958.97;4990136;28;20023;-69
2023/08/20 01:32:29;;;;;;;5.40;2.90;;;;;;;16.87;100.00;101954.63;4973020;28;20026;-68
2023/08/20 01:34:56;;;;;;;6.13;3.08;;;;;;;16.90;100.00;101952.06;4971764;28;20371;-69
2023/08/20 01:37:23;;;;;;;5.75;2.85;;;;;;;16.93;100.00;101946.00;4989924;28;20037;-69
2023/08/20 01:39:49;;;;;;;5.18;2.72;;;;;;;16.95;100.00;101949.53;4989713;28;20026;-69
2023/08/20 01:42:14;;;;;;;8.25;3.00;;;;;;;16.97;100.00;101947.84;4972220;28;20637;-68
2023/08/20 01:44:39;;;;;;;6.78;2.95;;;;;;;16.96;100.00;101946.09;4990368;28;20026;-69
2023/08/20 01:47:05;;;;;;;7.00;2.78;;;;;;;16.96;100.00;101956.56;4990754;28;20486;-68
2023/08/20 01:49:30;;;;;;;7.90;3.33;;;;;;;16.97;100.00;101953.09;4972888;28;20053;-68
2023/08/20 01:51:55;;;;;;;5.38;3.47;;;;;;;16.99;100.00;101955.75;4990184;28;20018;-68
2023/08/20 01:54:21;;;;;;;5.90;3.20;;;;;;;17.04;100.00;101956.72;4990237;28;20056;-69
2023/08/20 01:56:46;;;;;;;7.03;3.00;;;;;;;17.03;100.00;101958.47;4990508;28;20379;-69
2023/08/20 01:59:12;;;;;;;8.27;3.30;;;;;;;17.04;100.00;101960.25;4990386;28;20058;-68
2023/08/20 02:01:37;;;;;;;7.07;3.38;;;;;;;17.07;100.00;101963.78;4990137;28;20084;-69
2023/08/20 02:04:03;;;;;;;5.70;3.28;;;;;;;17.06;100.00;101965.50;4989611;28;20569;-68
2023/08/20 02:06:28;;;;;;;10.88;3.30;;;;;;;17.10;100.00;101969.06;4990165;28;20038;-68
2023/08/20 02:08:53;;;;;;;7.20;2.70;;;;;;;17.13;100.00;101969.19;4990392;28;20038;-67
2023/08/20 02:11:19;;;;;;;7.55;3.00;;;;;;;17.19;100.00;101969.31;4989811;28;20078;-69
2023/08/20 02:13:44;;;;;;;12.25;4.53;;;;;;;17.19;100.00;101976.28;4989926;28;20034;-68
2023/08/20 02:16:09;;;;;;;7.30;3.33;;;;;;;17.22;100.00;101979.88;4989673;28;20065;-68
2023/08/20 02:18:35;;;;;;;7.63;3.45;;;;;;;17.26;100.00;101992.19;4989896;28;20034;-68
2023/08/20 02:21:00;;;;;;;9.02;2.85;;;;;;;17.28;100.00;101990.50;4990547;28;20026;-69
2023/08/20 02:23:26;;;;;;;9.40;2.90;;;;;;;17.32;100.00;101995.78;4989420;28;20045;-68
2023/08/20 02:25:51;;;;;;;7.65;3.03;;;;;;;17.34;100.00;101981.84;4990165;28;20030;-69
2023/08/20 02:28:16;;;;;;;5.35;2.60;;;;;;;17.36;100.00;101982.78;4989646;28;20118;-67
2023/08/20 02:30:44;;;;;;;6.65;2.78;;;;;;;17.36;100.00;101984.53;4989369;28;20026;-69
2023/08/20 02:33:10;;;;;;;7.25;2.92;;;;;;;17.34;100.00;101984.47;4989774;28;20077;-69
2023/08/20 02:35:36;;;;;;;5.55;2.88;;;;;;;17.31;100.00;101980.91;4990047;28;20450;-67
2023/08/20 02:38:02;;;;;;;8.68;3.55;;;;;;;17.31;100.00;101986.16;4989559;28;20030;-68
2023/08/20 02:40:27;;;;;;;5.90;2.83;;;;;;;17.29;100.00;101975.63;4988925;28;20062;-69
2023/08/20 02:42:52;;;;;;;7.68;3.65;;;;;;;17.26;100.00;101978.19;4976523;28;20494;-68
2023/08/20 02:45:17;;;;;;;6.72;2.97;;;;;;;17.23;100.00;101971.19;4989199;28;20033;-68
2023/08/20 02:47:43;;;;;;;5.70;3.38;;;;;;;17.22;100.00;101964.16;4989844;28;20038;-64
2023/08/20 02:50:08;;;;;;;6.68;3.03;;;;;;;17.19;100.00;101963.19;4989586;28;20058;-68
2023/08/20 02:52:34;;;;;;;8.43;3.30;;;;;;;17.15;100.00;101964.88;4988652;28;20422;-69
2023/08/20 02:54:59;;;;;;;4.85;2.90;;;;;;;17.11;100.00;101961.28;4989727;28;20034;-68
2023/08/20 02:57:24;;;;;;;7.88;3.17;;;;;;;17.07;100.00;101969.03;4989787;28;20386;-68
2023/08/20 02:59:50;;;;;;;8.27;3.42;;;;;;;17.05;100.00;101969.84;4989522;28;20034;-69
2023/08/20 03:02:15;;;;;;;8.68;3.55;;;;;;;17.04;100.00;101975.06;4989311;28;20030;-68
2023/08/20 03:04:41;;;;;;;5.97;2.85;;;;;;;17.01;100.00;101967.13;4988934;28;20053;-68
2023/08/20 03:07:06;;;;;;;5.90;3.47;;;;;;;16.95;100.00;101967.88;4989486;28;20030;-69
2023/08/20 03:09:31;;;;;;;7.53;3.80;;;;;;;16.90;100.00;101966.88;4989786;28;20022;-69
2023/08/20 03:11:57;;;;;;;4.65;2.72;;;;;;;16.84;100.00;101953.66;4989149;28;20053;-68
2023/08/20 03:14:22;;;;;;;5.95;3.25;;;;;;;16.77;100.00;101958.75;4971817;28;20039;-69
2023/08/20 03:16:47;;;;;;;6.95;3.42;;;;;;;16.74;100.00;101949.94;4988593;28;20517;-68
2023/08/20 03:19:15;;;;;;;9.32;3.58;;;;;;;16.69;100.00;101953.31;4989387;28;20034;-69
2023/08/20 03:21:40;;;;;;;6.75;4.35;;;;;;;16.66;100.00;101955.84;4989242;28;20057;-67
2023/08/20 03:24:07;;;;;;;9.88;5.00;;;;;;;16.64;100.00;101959.31;4989473;28;20030;-69
2023/08/20 03:26:32;;;;;;;10.82;6.00;;;;;;;16.60;100.00;101954.84;4989219;28;20030;-68
2023/08/20 03:28:58;;;;;;;7.70;5.22;;;;;;;16.55;100.00;101960.81;4989131;28;20034;-68
2023/08/20 03:31:24;;;;;;;9.63;5.47;;;;;;;16.49;100.00;101955.47;4988590;28;20394;-66
2023/08/20 03:33:49;;;;;;;8.23;5.90;;;;;;;16.45;100.00;101958.84;4989217;28;20026;-68
2023/08/20 03:36:14;;;;;;;8.25;5.53;;;;;;;16.40;100.00;101955.22;4988946;28;20105;-69
2023/08/20 03:38:40;;;;;;;8.27;5.38;;;;;;;16.37;100.00;101955.16;4989126;28;20025;-68
2023/08/20 03:41:05;;;;;;;9.90;7.80;;;;;;;16.33;100.00;101952.44;4988625;28;20038;-68
2023/08/20 03:43:30;;;;;;;13.73;9.45;;;;;;;16.31;100.00;101950.63;4976250;28;20351;-68
2023/08/20 03:45:56;;;;;;;9.07;8.05;;;;;;;16.25;100.00;101956.59;4989295;28;20124;-69
2023/08/20 03:48:21;;;;;;;11.38;7.38;;;;;;;16.19;100.00;101962.53;4988938;28;20110;-68
2023/08/20 03:50:47;;;;;;;11.90;7.28;;;;;;;16.16;100.00;101962.47;4989274;28;20022;-68
2023/08/20 03:53:12;;;;;;;8.73;6.28;;;;;;;16.12;100.00;101965.81;4988481;28;20399;-69
2023/08/20 03:55:37;;;;;;;9.98;6.95;;;;;;;16.10;100.00;101961.41;4989228;28;20481;-67
2023/08/20 03:58:03;;;;;;;10.23;6.75;;;;;;;16.07;100.00;101968.34;4988897;28;20030;-68
2023/08/20 04:00:28;;;;;;;7.57;5.72;;;;;;;16.06;100.00;101970.91;4988928;28;20054;-66
2023/08/20 04:02:53;;;;;;;5.93;5.15;;;;;;;16.03;100.00;101969.09;4988437;28;20512;-68
2023/08/20 04:05:19;;;;;;;8.73;5.10;;;;;;;16.00;100.00;101968.13;4988736;28;20053;-68
2023/08/20 04:07:45;;;;;;;6.07;4.72;;;;;;;15.97;100.00;101977.59;4991927;28;20054;-65
2023/08/20 04:10:10;;;;;;;6.88;4.32;;;;;;;15.93;100.00;101980.09;4992435;28;20033;-69
2023/08/20 04:12:35;;;;;;;9.10;4.93;;;;;;;15.91;100.00;101981.78;4992212;28;20037;-69
2023/08/20 04:15:01;;;;;;;7.75;4.82;;;;;;;15.88;100.00;101986.94;4992291;28;20026;-68
2023/08/20 04:17:26;;;;;;;7.43;5.10;;;;;;;15.85;100.00;101991.22;4991711;28;20484;-69
2023/08/20 04:19:52;;;;;;;6.82;5.10;;;;;;;15.83;100.00;101994.66;4991244;28;20450;-69
2023/08/20 04:22:17;;;;;;;8.93;4.95;;;;;;;15.78;100.00;101991.88;4991066;28;20061;-68
2023/08/20 04:24:42;;;;;;;8.15;5.28;;;;;;;15.75;100.00;101986.59;4990559;28;20026;-67
2023/08/20 04:27:08;;;;;;;6.13;4.38;;;;;;;15.72;100.00;101986.50;4989892;28;20522;-67
2023/08/20 04:29:33;;;;;;;6.72;5.07;;;;;;;15.71;100.00;101989.94;4990822;28;20042;-69
2023/08/20 04:31:58;;;;;;;9.75;4.65;;;;;;;15.70;100.00;101998.63;4990732;28;20041;-68
2023/08/20 04:34:24;;;;;;;5.30;4.80;;;;;;;15.68;100.00;102000.31;4990782;28;20401;-69
2023/08/20 04:36:49;;;;;;;6.72;4.57;;;;;;;15.65;100.00;101995.88;4989263;28;20027;-67
2023/08/20 04:39:14;;;;;;;10.15;4.95;;;;;;;15.64;100.00;101998.44;4981198;28;20023;-68
2023/08/20 04:41:40;;;;;;;6.13;5.18;;;;;;;15.63;100.00;102001.91;4986220;28;20031;-68
2023/08/20 04:44:05;;;;;;;12.90;5.50;;;;;;;15.60;100.00;102003.56;4982868;28;20034;-69
2023/08/20 04:46:30;;;;;;;8.57;5.50;;;;;;;15.55;100.00;101999.94;4991857;28;20045;-68
2023/08/20 04:48:56;;;;;;;5.25;4.82;;;;;;;15.54;100.00;102003.38;4991534;28;20022;-69
2023/08/20 04:51:21;;;;;;;10.18;5.22;;;;;;;15.49;100.00;102000.63;4991519;28;20033;-68
2023/08/20 04:53:47;;;;;;;8.18;4.75;;;;;;;15.48;100.00;101998.00;4991592;28;20109;-68
2023/08/20 04:56:13;;;;;;;8.88;4.80;;;;;;;15.48;100.00;101993.66;4991495;28;20351;-69
2023/08/20 04:58:38;;;;;;;5.57;5.05;;;;;;;15.47;100.00;101986.66;4991068;28;20030;-68
2023/08/20 05:01:03;;;;;;;7.07;5.20;;;;;;;15.47;100.00;101991.00;4991608;28;20030;-67
2023/08/20 05:03:29;;;;;;;8.43;5.45;;;;;;;15.48;100.00;101998.88;4991421;28;20030;-69
2023/08/20 05:05:54;;;;;;;7.35;5.85;;;;;;;15.50;100.00;102006.75;4991450;28;20065;-68
2023/08/20 05:08:19;;;;;;;8.80;7.85;;;;;;;15.51;100.00;102003.28;4991219;28;20034;-67
2023/08/20 05:10:44;;;;;;;7.40;6.65;;;;;;;15.52;100.00;101997.25;4991141;28;20043;-68
2023/08/20 05:13:10;;;;;;;11.45;7.80;;;;;;;15.52;100.00;102004.19;4991292;28;20042;-68
2023/08/20 05:15:35;;;;;;;11.10;8.00;;;;;;;15.52;100.00;102006.81;4991608;28;20022;-68
2023/08/20 05:18:01;;;;;;;9.15;7.70;;;;;;;15.53;100.00;102012.06;4990040;28;20038;-68
2023/08/20 05:20:26;;;;;;;12.32;7.05;;;;;;;15.55;100.00;102013.00;4990561;28;20026;-68
2023/08/20 05:22:51;;;;;;;8.45;6.95;;;;;;;15.58;100.00;102015.69;4990847;28;20057;-68
2023/08/20 05:25:17;;;;;;;8.18;6.50;;;;;;;15.61;100.00;102009.69;4991145;28;20054;-67
2023/08/20 05:27:42;;;;;;;10.02;6.35;;;;;;;15.64;100.00;102014.09;4990794;28;20041;-68
2023/08/20 05:30:08;;;;;;;8.50;5.55;;;;;;;15.68;100.00;102010.75;4973149;28;20022;-67
2023/08/20 05:32:33;;;;;;;7.57;5.60;;;;;;;15.72;100.00;102020.47;4990529;28;20034;-68
2023/08/20 05:35:00;;;;;;;8.88;4.88;;;;;;;15.78;100.00;102022.34;4988009;28;20385;-68
2023/08/20 05:37:25;;;;;;;7.78;4.65;;;;;;;15.85;100.00;102012.13;4975643;28;20026;-67
2023/08/20 05:39:51;;;;;;;6.68;4.90;;;;;;;15.93;100.00;102024.53;4987066;28;20109;-69
2023/08/20 05:42:17;;;;;;;8.70;4.35;;;;;;;16.00;100.00;102020.38;4993826;28;20541;-68
2023/08/20 05:44:42;;;;;;;6.50;4.40;;;;;;;16.07;100.00;102023.22;4984271;28;20034;-67
2023/08/20 05:47:07;;;;;;;7.88;4.55;;;;;;;16.16;100.00;102025.22;4975308;28;20031;-68
2023/08/20 05:49:33;;;;;;;9.20;4.95;;;;;;;16.23;100.00;102020.13;4983832;28;20030;-68
2023/08/20 05:51:59;;;;;;;9.70;4.55;;;;;;;16.31;100.00;102029.09;4987093;28;20034;-67
2023/08/20 05:54:24;;;;;;;9.38;4.63;;;;;;;16.40;100.00;102025.84;4967140;28;20374;-66
2023/08/20 05:56:50;;;;;;;7.28;4.90;;;;;;;16.50;100.00;102030.47;4960877;28;20030;-65
2023/08/20 05:59:16;;;;;;;9.02;4.68;;;;;;;16.58;100.00;102027.16;4968588;28;20042;-68
2023/08/20 06:01:42;;;;;;;10.52;4.95;;;;;;;16.67;100.00;102016.94;4977792;28;20069;-67
2023/08/20 06:04:08;;;;;;;8.50;4.00;;;;;;;16.78;100.00;102030.31;4981688;28;20700;-68
2023/08/20 06:06:33;;;;;;;5.78;3.75;;;;;;;16.91;100.00;102026.22;4987474;28;20097;-68
2023/08/20 06:08:58;;;;;;;6.30;4.03;;;;;;;17.03;100.00;102037.03;4987729;28;20101;-67
2023/08/20 06:11:24;;;;;;;6.53;4.20;;;;;;;17.14;100.00;102031.19;4987209;28;20118;-68
2023/08/20 06:13:49;;;;;;;7.38;4.82;;;;;;;17.25;100.00;102027.06;4978476;28;20042;-68
2023/08/20 06:16:14;;;;;;;7.25;4.28;;;;;;;17.36;100.00;102026.47;4987238;28;20512;-67
2023/08/20 06:18:40;;;;;;;6.20;3.45;;;;;;;17.48;100.00;102018.88;4981781;28;20157;-68
2023/08/20 06:21:05;;;;;;;7.57;4.22;;;;;;;17.61;100.00;102021.75;4979833;28;20057;-68
2023/08/20 06:23:30;;;;;;;7.78;4.88;;;;;;;17.72;100.00;102028.09;4977375;28;20027;-65
2023/08/20 06:25:56;;;;;;;5.75;3.80;;;;;;;17.85;100.00;102036.19;4978595;28;20026;-68
2023/08/20 06:28:21;;;;;;;7.30;3.85;;;;;;;17.99;100.00;102029.50;4978870;28;20030;-67
2023/08/20 06:30:47;;;;;;;6.32;4.05;;;;;;;18.17;100.00;102030.75;4986380;28;20030;-68
2023/08/20 06:33:12;;;;;;;5.38;3.67;;;;;;;18.36;100.00;102032.00;4979281;28;20029;-67
2023/08/20 06:35:38;;;;;;;6.70;3.90;;;;;;;18.56;100.00;102033.22;4980604;28;20031;-68
2023/08/20 06:38:03;;;;;;;8.38;3.78;;;;;;;18.75;100.00;102033.50;4959375;28;20046;-69
2023/08/20 06:40:29;;;;;;;7.82;4.13;;;;;;;18.93;100.00;102030.31;4984312;28;20045;-69
2023/08/20 06:42:54;;;;;;;8.20;3.78;;;;;;;19.13;100.00;102045.53;4978176;28;20030;-69
2023/08/20 06:45:20;;;;;;;8.95;3.90;;;;;;;19.31;100.00;102039.66;4982898;28;20026;-69
2023/08/20 06:47:45;;;;;;;9.35;4.60;;;;;;;19.50;100.00;102047.81;4978229;28;20066;-67
2023/08/20 06:50:10;;;;;;;7.30;4.75;;;;;;;19.62;100.00;102044.47;4986055;28;20449;-65
2023/08/20 06:52:36;;;;;;;8.52;5.47;;;;;;;19.71;100.00;102046.34;4984827;28;20022;-68
2023/08/20 06:55:01;;;;;;;7.28;3.95;;;;;;;19.86;100.00;102045.66;4981524;28;20102;-69
2023/08/20 06:57:26;;;;;;;9.27;4.85;;;;;;;19.98;100.00;102048.44;4989941;28;20023;-69
2023/08/20 06:59:52;;;;;;;7.13;4.47;;;;;;;20.15;100.00;102048.66;4989240;28;20034;-70
2023/08/20 07:02:17;;;;;;;9.27;4.82;;;;;;;20.35;100.00;102036.56;4989589;28;20022;-70
2023/08/20 07:04:42;;;;;;;8.10;4.68;;;;;;;20.53;100.00;102043.75;4989350;28;20059;-68
2023/08/20 07:07:09;;;;;;;11.95;4.43;;;;;;;20.70;100.00;102048.28;4988637;28;20939;-68
2023/08/20 07:09:34;;;;;;;9.00;4.47;;;;;;;20.88;100.00;102047.56;4989685;28;20470;-69
2023/08/20 07:11:59;;;;;;;8.43;3.75;;;;;;;21.07;100.00;102053.88;4989297;28;20047;-69
2023/08/20 07:14:25;;;;;;;6.97;4.32;;;;;;;21.27;100.00;102061.03;4989185;28;20034;-69
2023/08/20 07:16:50;;;;;;;18.58;5.20;;;;;;;21.45;100.00;102055.00;4989160;28;20073;-69
2023/08/20 07:19:15;;;;;;;11.98;5.28;;;;;;;21.56;100.00;102062.97;4982727;28;20896;-70
2023/08/20 07:21:41;;;;;;;8.25;4.78;;;;;;;21.73;100.00;102064.78;4984156;28;20019;-70
2023/08/20 07:24:06;;;;;;;10.52;4.80;;;;;;;21.93;100.00;102064.03;4989278;28;20073;-69
2023/08/20 07:26:32;;;;;;;10.48;4.53;;;;;;;22.10;100.00;102063.22;4989339;28;20049;-69
2023/08/20 07:28:57;;;;;;;5.78;3.67;;;;;;;22.31;100.00;102060.63;4989135;28;20057;-69
2023/08/20 07:31:23;;;;;;;6.78;3.90;;;;;;;;;;4980175;28;20026;-68
2023/08/20 07:33:49;;;;;;;7.70;4.32;;;;;;;22.77;100.00;102064.22;4984835;28;20113;-70
2023/08/20 07:36:15;;;;;;;7.25;4.22;;;;;;;23.03;100.00;102063.34;4985571;28;20383;-68
2023/08/20 07:38:42;;;;;;;6.38;3.63;;;;;;;23.31;100.00;102066.81;4988692;28;20037;-69
2023/08/20 07:41:08;;;;;;;8.65;4.47;;;;;;;23.51;100.00;102072.09;4988821;28;20109;-69
2023/08/20 07:43:33;;;;;;;6.68;3.90;;;;;;;23.74;97.73;102077.31;4979778;28;20419;-69
2023/08/20 07:45:58;;;;;;;9.43;4.18;;;;;;;23.98;99.24;102070.13;4991857;28;20026;-66
2023/08/20 07:48:23;;;;;;;6.70;3.38;;;;;;;24.28;96.58;102069.13;4992422;28;20133;-70
2023/08/20 07:50:49;;;;;;;6.03;3.30;;;;;;;24.45;91.46;102075.16;4983713;28;20057;-66
2023/08/20 07:53:14;;;;;;;6.90;3.95;;;;;;;24.70;92.62;102082.94;4990150;28;20034;-70
2023/08/20 07:55:39;;;;;;;5.50;3.17;;;;;;;24.97;88.72;102084.53;4990444;28;20046;-70
2023/08/20 07:58:05;;;;;;;8.68;2.58;;;;;;;25.10;86.28;102090.56;4989019;28;20048;-69
2023/08/20 08:00:31;;;;;;;6.25;2.60;;;;;;;25.27;82.96;102086.00;4990839;28;20129;-69
2023/08/20 08:02:56;;;;;;;5.35;2.45;;;;;;;25.39;85.03;102086.75;4987378;28;20566;-69
2023/08/20 08:05:21;;;;;;;7.15;2.72;;;;;;;25.53;83.37;102090.13;4987314;28;20678;-70
2023/08/20 08:07:46;;;;;;;7.40;3.10;;;;;;;25.61;82.54;102090.03;4987073;28;20026;-70
2023/08/20 08:10:12;;;;;;;7.57;3.22;;;;;;;25.80;83.59;102089.84;4987595;28;20418;-69
2023/08/20 08:12:37;;;;;;;5.78;2.92;;;;;;;25.99;82.10;102098.47;4987792;28;20092;-69
2023/08/20 08:15:02;;;;;;;5.47;2.72;;;;;;;26.12;79.10;102096.50;4988088;28;20026;-69
2023/08/20 08:17:28;;;;;;;7.63;2.80;;;;;;;26.18;79.49;102094.66;4987972;28;20022;-68
2023/08/20 08:19:55;;;;;;;3.97;2.65;;;;;;;26.35;77.59;102095.34;4987761;28;20023;-69
2023/08/20 08:22:20;;;;;;;9.95;3.05;;;;;;;26.42;79.37;102098.78;4990283;28;20029;-69
2023/08/20 08:24:45;;;;;;;4.38;2.40;;;;;;;26.44;79.76;102112.03;4989915;28;20018;-69
2023/08/20 08:27:10;;;;;;;5.78;2.40;;;;;;;26.44;79.20;102107.59;4980883;28;20076;-69
2023/08/20 08:29:36;;;;;;;4.55;2.47;;;;;;;26.60;76.14;102102.94;4989399;28;20397;-69
2023/08/20 08:32:01;;;;;;;5.50;2.58;;;;;;;26.70;78.41;102108.97;4989859;28;20034;-69
2023/08/20 08:34:26;;;;;;;5.68;2.65;;;;;;;26.83;75.29;102106.97;4989737;28;20026;-69
2023/08/20 08:36:52;;;;;;;6.30;2.63;;;;;;;26.91;72.40;102103.31;4989002;28;20637;-69
2023/08/20 08:39:17;;;;;;;5.18;2.75;;;;;;;26.92;75.66;102100.63;4988945;28;20686;-69
2023/08/20 08:41:43;;;;;;;6.20;2.20;;;;;;;26.91;71.54;102111.28;4983983;28;20106;-70
2023/08/20 08:44:09;;;;;;;6.53;2.58;;;;;;;26.95;71.56;102111.19;4981162;28;20053;-69
2023/08/20 08:46:36;;;;;;;6.80;2.22;;;;;;;27.00;72.86;102115.56;4988810;28;20382;-69
2023/08/20 08:49:01;;;;;;;4.32;2.60;;;;;;;27.06;70.60;102115.47;4990382;28;20418;-69
2023/08/20 08:51:28;;;;;;;5.68;2.05;;;;;;;27.05;68.12;102114.63;4990224;28;20097;-69
2023/08/20 08:53:54;;;;;;;6.32;2.13;;;;;;;27.06;68.96;102115.47;4989937;28;20041;-68
2023/08/20 08:56:20;;;;;;;4.95;1.85;;;;;;;27.16;68.56;102113.53;4990595;28;20030;-70
2023/08/20 08:58:45;;;;;;;4.05;2.00;;;;;;;27.20;66.38;102104.63;4990635;28;20481;-70
2023/08/20 09:01:10;;;;;;;4.30;1.92;;;;;;;27.25;67.04;102113.38;4989044;28;20142;-69
2023/08/20 09:03:36;;;;;;;3.97;2.47;;;;;;;27.28;67.22;102117.75;4990279;28;20097;-69
2023/08/20 09:06:07;;;;;;;4.78;2.00;;;;;;;27.31;66.61;102113.25;4990332;28;20033;-69
2023/08/20 09:08:32;;;;;;;2.88;1.40;;;;;;;27.27;69.11;102114.19;4990269;28;20031;-69
2023/08/20 09:11:00;;;;;;;3.85;1.55;;;;;;;27.30;63.70;102123.94;4989818;28;20030;-70
2023/08/20 09:13:39;;;;;;;4.45;1.73;;;;;;;27.26;64.73;102115.13;4990181;28;20026;-69
2023/08/20 09:16:06;;;;;;;2.53;1.30;;;;;;;27.29;65.77;102117.72;4978403;28;20548;-69
2023/08/20 09:18:43;;;;;;;3.42;1.80;;;;;;;27.31;66.83;102117.69;4989931;28;20304;-69
2023/08/20 09:21:10;;;;;;;4.63;1.60;;;;;;;27.28;64.74;102121.31;4989213;28;20090;-69
2023/08/20 09:23:36;;;;;;;3.22;1.25;;;;;;;27.33;63.61;102122.09;4989478;28;20108;-68
2023/08/20 09:26:03;;;;;;;3.17;1.10;;;;;;;27.45;63.84;102122.78;4990047;28;20030;-68
2023/08/20 09:28:44;;;;;;;3.60;1.90;;;;;;;27.57;64.81;102124.31;4989866;28;20345;-69
2023/08/20 09:31:10;;;;;;;3.15;1.20;;;;;;;27.57;64.84;102124.31;4990226;28;20026;-69
2023/08/20 09:33:35;;;;;;;2.78;1.20;;;;;;;27.60;64.20;102120.69;4989129;28;20504;-68
2023/08/20 09:36:03;;;;;;;2.53;0.80;;;;;;;27.61;60.71;102123.34;4989882;28;20027;-69
2023/08/20 09:38:28;;;;;;;2.05;1.20;;;;;;;27.61;62.97;102133.09;4990276;28;20015;-69
2023/08/20 09:40:56;;;;;;;1.90;1.10;;;;;;;27.68;61.06;102126.75;4988911;28;20500;-68
2023/08/20 09:43:26;;;;;;;2.42;1.50;;;;;;;27.75;61.41;102124.88;4976660;28;20033;-69
2023/08/20 09:45:54;;;;;;;2.78;1.02;;;;;;;27.79;62.29;102126.56;4989606;28;20147;-69
2023/08/20 09:48:20;;;;;;;3.40;1.33;;;;;;;27.79;57.68;102130.09;4988728;28;20030;-69
2023/08/20 09:50:47;;;;;;;5.75;1.63;;;;;;;27.66;59.94;102131.22;4989640;28;20022;-69
2023/08/20 09:53:21;;;;;;;3.70;1.27;;;;;;;27.69;63.16;102131.16;4989105;28;20110;-68
2023/08/20 09:55:50;;;;;;;2.75;1.40;;;;;;;27.74;59.86;102129.31;4989388;28;20037;-69
2023/08/20 09:58:16;;;;;;;2.03;1.13;;;;;;;27.73;62.69;102124.91;4988505;28;20032;-68
2023/08/20 10:00:42;;;;;;;3.25;1.00;;;;;;;27.77;55.03;102133.69;4989336;28;20038;-68
2023/08/20 10:03:07;;;;;;;3.60;0.90;;;;;;;27.76;58.11;102127.50;4989151;28;20475;-69
2023/08/20 10:05:33;;;;;;;2.60;1.23;;;;;;;27.75;56.09;102131.06;4970986;28;20474;-67
2023/08/20 10:08:00;;;;;;;2.10;1.40;;;;;;;27.77;60.50;102123.94;4989908;28;20725;-69
2023/08/20 10:10:26;;;;;;;2.03;0.88;;;;;;;27.86;60.46;102121.97;4989044;28;20022;-69
2023/08/20 10:12:51;;;;;;;2.88;1.20;;;;;;;27.82;57.91;102121.16;4988383;28;20097;-64
2023/08/20 10:15:17;;;;;;;1.60;0.90;;;;;;;27.90;59.39;102129.00;4988938;28;20041;-69
2023/08/20 10:17:44;;;;;;;2.85;0.70;;;;;;;28.01;56.65;102126.97;4989108;28;20026;-68
2023/08/20 10:20:13;;;;;;;2.00;0.50;;;;;;;28.02;55.95;102130.53;4989044;28;20109;-68
2023/08/20 10:22:40;;;;;;;1.85;0.50;;;;;;;28.07;54.92;102123.31;4987959;28;20026;-68
2023/08/20 10:25:11;;;;;;;1.85;0.60;;;;;;;28.07;54.47;102120.63;4989201;28;20374;-66
2023/08/20 10:27:42;;;;;;;1.83;0.55;;;;;;;28.01;54.06;102126.97;4989211;28;20429;-67
2023/08/20 10:30:15;;;;;;;3.60;0.77;;;;;;;28.03;53.79;102122.50;4988681;28;20061;-68
2023/08/20 10:32:46;;;;;;;1.27;0.50;;;;;;;28.06;54.81;102118.91;4988924;28;20034;-68
2023/08/20 10:35:12;;;;;;;1.38;0.65;;;;;;;28.08;51.66;102118.84;4988954;28;20109;-66
2023/08/20 10:37:37;;;;;;;1.88;0.82;;;;;;;28.05;54.40;102125.13;4988889;28;20125;-67
2023/08/20 10:40:04;;;;;;;1.60;0.50;;;;;;;28.09;54.34;102120.59;4988278;28;20368;-68
2023/08/20 10:42:30;;;;;;;1.65;0.60;;;;;;;28.16;55.35;102130.22;4977727;28;20081;-68
2023/08/20 10:45:16;;;;;;;4.20;0.60;;;;;;;28.16;54.84;102124.88;4986616;28;20026;-68
2023/08/20 10:47:41;;;;;;;1.48;0.60;;;;;;;27.94;50.82;102128.00;4975480;28;20077;-68
2023/08/20 10:50:08;;;;;;;3.05;0.60;;;;;;;27.90;54.88;102129.84;4988602;28;20026;-68
2023/08/20 10:52:38;;;;;;;2.90;0.55;;;;;;;28.00;54.57;102132.34;4987761;28;20046;-67
2023/08/20 10:55:06;;;;;;;1.02;0.43;;;;;;;28.07;55.99;102127.75;4988519;28;20030;-67
2023/08/20 10:57:35;;;;;;;4.28;0.57;;;;;;;28.13;51.32;102124.97;4988502;28;20034;-68
2023/08/20 11:00:10;;;;;;;1.77;0.40;;;;;;;28.19;54.58;102121.28;4988400;28;20474;-67
2023/08/20 11:02:36;;;;;;;1.20;0.40;;;;;;;28.16;49.38;102124.88;4987951;28;20451;-69
2023/08/20 11:05:03;;;;;;;2.15;0.55;;;;;;;28.12;50.20;102125.84;4988965;28;20026;-68
2023/08/20 11:07:31;;;;;;;2.17;0.60;;;;;;;28.24;55.59;102128.28;4988506;28;20030;-69
2023/08/20 11:09:57;;;;;;;1.13;0.28;;;;;;;28.31;55.64;102125.44;4987835;28;20504;-68
2023/08/20 11:12:23;;;;;;;0.98;0.47;;;;;;;28.39;55.23;102128.84;4987567;28;20569;-69
2023/08/20 11:14:48;;;;;;;1.13;0.47;;;;;;;28.33;51.41;102119.19;4988159;28;20038;-68